createdAt,value
2018-05-19T00:00:55.655Z,8.03
2018-05-19T00:01:55.804Z,8.03
2018-05-19T00:02:55.956Z,8.03
2018-05-19T00:03:56.105Z,8.04
2018-05-19T00:04:56.256Z,8.08
2018-05-19T00:05:56.404Z,8.03
2018-05-19T00:06:56.557Z,8.03
2018-05-19T00:07:56.705Z,8.08
2018-05-19T00:08:56.860Z,8.07
2018-05-19T00:09:57.008Z,8.04
2018-05-19T00:10:57.157Z,8.10
2018-05-19T00:11:57.307Z,8.21
2018-05-19T00:12:57.457Z,8.18
2018-05-19T00:13:57.609Z,8.17
2018-05-19T00:14:57.755Z,8.10
2018-05-19T00:15:57.909Z,8.00
2018-05-19T00:16:58.057Z,8.08
2018-05-19T00:17:58.208Z,8.03
2018-05-19T00:18:58.357Z,8.03
2018-05-19T00:19:58.507Z,8.00
2018-05-19T00:20:58.656Z,7.96
2018-05-19T00:21:58.811Z,8.03
2018-05-19T00:22:58.957Z,8.00
2018-05-19T00:23:59.107Z,8.08
2018-05-19T00:24:59.254Z,8.03
2018-05-19T00:25:59.406Z,7.93
2018-05-19T00:26:59.556Z,8.00
2018-05-19T00:27:59.704Z,7.87
2018-05-19T00:28:59.853Z,8.03
2018-05-19T00:30:00.003Z,8.03
2018-05-19T00:31:00.151Z,7.96
2018-05-19T00:32:00.301Z,7.92
2018-05-19T00:33:00.460Z,7.97
2018-05-19T00:34:00.604Z,7.99
2018-05-19T00:35:00.753Z,7.85
2018-05-19T00:36:00.902Z,7.90
2018-05-19T00:37:01.060Z,7.99
2018-05-19T00:38:01.204Z,8.00
2018-05-19T00:39:01.355Z,8.08
2018-05-19T00:40:01.506Z,8.04
2018-05-19T00:41:01.653Z,8.04
2018-05-19T00:42:01.805Z,7.97
2018-05-19T00:43:01.955Z,8.02
2018-05-19T00:44:02.106Z,8.03
2018-05-19T00:45:02.256Z,8.00
2018-05-19T00:46:02.409Z,8.00
2018-05-19T00:47:02.558Z,8.02
2018-05-19T00:48:02.706Z,8.00
2018-05-19T00:49:02.858Z,8.00
2018-05-19T00:50:03.012Z,7.99
2018-05-19T00:51:03.156Z,8.03
2018-05-19T00:52:03.306Z,7.99
2018-05-19T00:53:03.455Z,7.96
2018-05-19T00:54:03.615Z,8.02
2018-05-19T00:55:03.756Z,7.97
2018-05-19T00:56:03.901Z,8.10
2018-05-19T00:57:04.049Z,7.99
2018-05-19T00:58:04.200Z,8.07
2018-05-19T00:59:04.351Z,8.11
2018-05-19T01:00:04.500Z,8.15
2018-05-19T01:01:04.649Z,8.08
2018-05-19T01:02:04.800Z,8.03
2018-05-19T01:03:04.949Z,7.99
2018-05-19T01:04:05.101Z,8.07
2018-05-19T01:05:05.250Z,8.07
2018-05-19T01:06:05.403Z,8.07
2018-05-19T01:07:05.555Z,8.11
2018-05-19T01:08:05.699Z,8.10
2018-05-19T01:09:05.850Z,7.99
2018-05-19T01:10:06.000Z,8.12
2018-05-19T01:11:06.152Z,8.04
2018-05-19T01:12:06.301Z,8.03
2018-05-19T01:13:06.452Z,8.18
2018-05-19T01:14:06.603Z,8.00
2018-05-19T01:15:06.752Z,8.03
2018-05-19T01:16:06.901Z,8.11
2018-05-19T01:17:07.050Z,7.94
2018-05-19T01:18:07.198Z,7.90
2018-05-19T01:19:07.349Z,7.87
2018-05-19T01:20:07.496Z,7.93
2018-05-19T01:21:07.648Z,7.81
2018-05-19T01:22:07.798Z,7.78
2018-05-19T01:23:07.947Z,7.75
2018-05-19T01:24:08.126Z,7.74
2018-05-19T01:25:08.248Z,7.82
2018-05-19T01:26:08.401Z,7.79
2018-05-19T01:27:08.548Z,7.89
2018-05-19T01:28:08.702Z,7.82
2018-05-19T01:29:08.851Z,7.87
2018-05-19T01:30:08.999Z,7.82
2018-05-19T01:31:09.154Z,7.87
2018-05-19T01:32:09.342Z,7.90
2018-05-19T01:33:09.449Z,7.92
2018-05-19T01:34:09.601Z,7.84
2018-05-19T01:35:09.756Z,7.78
2018-05-19T01:36:09.906Z,7.84
2018-05-19T01:37:10.056Z,7.85
2018-05-19T01:38:10.209Z,7.79
2018-05-19T01:39:10.360Z,7.78
2018-05-19T01:40:10.509Z,7.74
2018-05-19T01:41:10.658Z,7.89
2018-05-19T01:42:10.807Z,7.90
2018-05-19T01:43:10.959Z,7.87
2018-05-19T01:44:11.114Z,7.85
2018-05-19T01:45:11.263Z,7.77
2018-05-19T01:46:11.414Z,7.79
2018-05-19T01:47:11.565Z,7.79
2018-05-19T01:48:11.710Z,7.71
2018-05-19T01:49:11.863Z,7.74
2018-05-19T01:50:12.012Z,7.71
2018-05-19T01:51:12.162Z,7.75
2018-05-19T01:52:12.313Z,7.77
2018-05-19T01:53:12.461Z,7.72
2018-05-19T01:54:12.609Z,7.74
2018-05-19T01:55:12.762Z,7.72
2018-05-19T01:56:12.910Z,7.79
2018-05-19T01:57:13.060Z,7.67
2018-05-19T01:58:13.212Z,7.67
2018-05-19T01:59:13.361Z,7.74
2018-05-19T02:00:13.520Z,7.75
2018-05-19T02:01:13.663Z,7.82
2018-05-19T02:02:13.817Z,7.69
2018-05-19T02:03:13.966Z,7.67
2018-05-19T02:04:14.117Z,7.58
2018-05-19T02:05:14.263Z,7.67
2018-05-19T02:06:14.413Z,7.59
2018-05-19T02:07:14.561Z,7.66
2018-05-19T02:08:14.710Z,7.67
2018-05-19T02:09:14.859Z,7.55
2018-05-19T02:10:15.009Z,7.56
2018-05-19T02:11:15.156Z,7.77
2018-05-19T02:12:15.308Z,7.75
2018-05-19T02:13:15.457Z,7.81
2018-05-19T02:14:15.607Z,7.82
2018-05-19T02:15:15.758Z,7.85
2018-05-19T02:16:15.908Z,7.81
2018-05-19T02:17:16.057Z,7.81
2018-05-19T02:18:16.207Z,7.78
2018-05-19T02:19:16.356Z,7.84
2018-05-19T02:20:16.503Z,7.85
2018-05-19T02:21:16.652Z,7.87
2018-05-19T02:22:16.802Z,7.85
2018-05-19T02:23:16.954Z,7.81
2018-05-19T02:24:17.103Z,7.81
2018-05-19T02:25:17.261Z,7.89
2018-05-19T02:26:17.402Z,7.77
2018-05-19T02:27:17.552Z,7.67
2018-05-19T02:28:17.704Z,7.67
2018-05-19T02:29:17.850Z,7.82
2018-05-19T02:30:18.004Z,7.79
2018-05-19T02:31:18.149Z,7.71
2018-05-19T02:32:18.303Z,7.74
2018-05-19T02:33:18.451Z,7.67
2018-05-19T02:34:18.600Z,7.55
2018-05-19T02:35:18.749Z,7.52
2018-05-19T02:36:18.899Z,7.52
2018-05-19T02:37:19.049Z,7.56
2018-05-19T02:38:19.198Z,7.66
2018-05-19T02:39:19.349Z,7.60
2018-05-19T02:40:19.500Z,7.60
2018-05-19T02:41:19.712Z,7.62
2018-05-19T02:42:19.796Z,7.56
2018-05-19T02:43:19.948Z,7.62
2018-05-19T02:44:20.098Z,7.50
2018-05-19T02:45:20.246Z,7.49
2018-05-19T02:46:20.396Z,7.55
2018-05-19T02:47:20.544Z,7.58
2018-05-19T02:48:20.690Z,7.60
2018-05-19T02:49:20.835Z,7.53
2018-05-19T02:50:20.982Z,7.32
2018-05-19T02:51:21.129Z,7.38
2018-05-19T02:52:21.278Z,7.47
2018-05-19T02:53:21.440Z,7.38
2018-05-19T02:54:21.582Z,7.45
2018-05-19T02:55:21.733Z,7.45
2018-05-19T02:56:21.886Z,7.45
2018-05-19T02:57:22.035Z,7.23
2018-05-19T02:58:22.184Z,7.37
2018-05-19T02:59:22.340Z,7.40
2018-05-19T03:00:22.483Z,7.37
2018-05-19T03:01:22.633Z,7.41
2018-05-19T03:02:22.785Z,7.26
2018-05-19T03:03:22.934Z,7.34
2018-05-19T03:04:23.083Z,7.38
2018-05-19T03:05:23.234Z,7.32
2018-05-19T03:06:23.384Z,7.22
2018-05-19T03:07:23.532Z,7.26
2018-05-19T03:08:23.682Z,7.40
2018-05-19T03:09:23.830Z,7.29
2018-05-19T03:10:23.982Z,7.42
2018-05-19T03:11:24.131Z,7.38
2018-05-19T03:12:24.278Z,7.40
2018-05-19T03:13:24.429Z,7.42
2018-05-19T03:14:24.579Z,7.32
2018-05-19T03:15:24.812Z,7.40
2018-05-19T03:16:24.878Z,7.44
2018-05-19T03:17:25.026Z,7.40
2018-05-19T03:18:25.177Z,7.44
2018-05-19T03:19:25.331Z,7.47
2018-05-19T03:20:25.478Z,7.42
2018-05-19T03:21:25.623Z,7.29
2018-05-19T03:22:25.774Z,7.24
2018-05-19T03:23:25.922Z,7.31
2018-05-19T03:24:26.072Z,7.31
2018-05-19T03:25:26.228Z,7.53
2018-05-19T03:26:26.372Z,7.37
2018-05-19T03:27:26.523Z,7.23
2018-05-19T03:28:26.675Z,7.31
2018-05-19T03:29:26.822Z,7.41
2018-05-19T03:30:26.969Z,7.52
2018-05-19T03:31:27.123Z,7.52
2018-05-19T03:32:27.271Z,7.42
2018-05-19T03:33:27.422Z,7.47
2018-05-19T03:34:27.568Z,7.40
2018-05-19T03:35:27.719Z,7.27
2018-05-19T03:36:27.867Z,7.38
2018-05-19T03:37:28.019Z,7.47
2018-05-19T03:38:28.167Z,7.31
2018-05-19T03:39:28.317Z,7.27
2018-05-19T03:40:28.468Z,7.22
2018-05-19T03:41:28.617Z,7.15
2018-05-19T03:42:28.764Z,7.22
2018-05-19T03:43:28.916Z,7.29
2018-05-19T03:44:29.067Z,7.29
2018-05-19T03:45:29.219Z,7.40
2018-05-19T03:46:29.367Z,7.38
2018-05-19T03:47:29.517Z,7.27
2018-05-19T03:48:29.668Z,7.32
2018-05-19T03:49:29.821Z,7.24
2018-05-19T03:50:29.971Z,7.24
2018-05-19T03:51:30.118Z,7.29
2018-05-19T03:52:30.268Z,7.37
2018-05-19T03:53:30.416Z,7.37
2018-05-19T03:54:30.634Z,7.45
2018-05-19T03:55:30.715Z,7.45
2018-05-19T03:56:30.868Z,7.49
2018-05-19T03:57:31.017Z,7.52
2018-05-19T03:58:31.164Z,7.55
2018-05-19T03:59:31.313Z,7.53
2018-05-19T04:00:31.463Z,7.74
2018-05-19T04:01:31.615Z,7.74
2018-05-19T04:02:31.762Z,7.74
2018-05-19T04:03:31.915Z,7.62
2018-05-19T04:04:32.064Z,7.60
2018-05-19T04:05:32.213Z,7.69
2018-05-19T04:06:32.363Z,7.85
2018-05-19T04:07:32.511Z,7.84
2018-05-19T04:08:32.664Z,7.90
2018-05-19T04:09:32.813Z,7.90
2018-05-19T04:10:32.964Z,7.92
2018-05-19T04:11:33.118Z,7.75
2018-05-19T04:12:33.267Z,7.78
2018-05-19T04:13:33.415Z,7.84
2018-05-19T04:14:33.568Z,8.02
2018-05-19T04:15:33.718Z,8.03
2018-05-19T04:16:33.865Z,8.12
2018-05-19T04:17:34.020Z,8.02
2018-05-19T04:18:34.174Z,8.12
2018-05-19T04:19:34.324Z,8.03
2018-05-19T04:20:34.471Z,8.03
2018-05-19T04:21:34.686Z,8.21
2018-05-19T04:22:34.773Z,8.15
2018-05-19T04:23:34.923Z,8.17
2018-05-19T04:24:35.069Z,8.20
2018-05-19T04:25:35.220Z,8.18
2018-05-19T04:26:35.367Z,8.14
2018-05-19T04:27:35.517Z,8.14
2018-05-19T04:28:35.667Z,8.20
2018-05-19T04:29:35.821Z,8.07
2018-05-19T04:30:35.971Z,8.02
2018-05-19T04:31:36.121Z,8.15
2018-05-19T04:32:36.276Z,8.21
2018-05-19T04:33:36.430Z,8.26
2018-05-19T04:34:36.577Z,8.35
2018-05-19T04:35:36.727Z,8.47
2018-05-19T04:36:36.876Z,8.47
2018-05-19T04:37:37.027Z,8.47
2018-05-19T04:38:37.177Z,8.50
2018-05-19T04:39:37.339Z,8.54
2018-05-19T04:40:37.480Z,8.62
2018-05-19T04:41:37.632Z,8.75
2018-05-19T04:42:37.781Z,8.78
2018-05-19T04:43:37.934Z,8.78
2018-05-19T04:44:38.084Z,8.79
2018-05-19T04:45:38.238Z,8.97
2018-05-19T04:46:38.391Z,8.99
2018-05-19T04:47:38.541Z,9.04
2018-05-19T04:48:38.693Z,8.94
2018-05-19T04:49:38.841Z,8.84
2018-05-19T04:50:38.989Z,8.86
2018-05-19T04:51:39.138Z,8.91
2018-05-19T04:52:39.289Z,8.88
2018-05-19T04:53:39.439Z,8.99
2018-05-19T04:54:39.592Z,8.91
2018-05-19T04:55:39.741Z,8.93
2018-05-19T04:56:39.893Z,8.90
2018-05-19T04:57:40.048Z,9.01
2018-05-19T04:58:40.194Z,9.15
2018-05-19T04:59:40.375Z,9.05
2018-05-19T05:00:40.499Z,8.99
2018-05-19T05:01:40.649Z,8.87
2018-05-19T05:02:40.799Z,8.79
2018-05-19T05:03:40.992Z,8.87
2018-05-19T05:04:41.106Z,8.81
2018-05-19T05:05:41.251Z,8.94
2018-05-19T05:06:41.402Z,8.93
2018-05-19T05:07:41.554Z,8.93
2018-05-19T05:08:41.703Z,9.09
2018-05-19T05:09:41.854Z,9.09
2018-05-19T05:10:42.005Z,9.24
2018-05-19T05:11:42.157Z,9.20
2018-05-19T05:12:42.310Z,9.24
2018-05-19T05:13:42.464Z,9.35
2018-05-19T05:14:42.609Z,9.60
2018-05-19T05:15:42.765Z,9.48
2018-05-19T05:16:42.916Z,9.63
2018-05-19T05:17:43.068Z,9.60
2018-05-19T05:18:43.219Z,9.57
2018-05-19T05:19:43.385Z,9.53
2018-05-19T05:20:43.523Z,9.68
2018-05-19T05:21:43.673Z,9.60
2018-05-19T05:22:43.824Z,9.58
2018-05-19T05:23:43.975Z,9.57
2018-05-19T05:24:44.126Z,9.56
2018-05-19T05:25:44.276Z,9.46
2018-05-19T05:26:44.426Z,9.56
2018-05-19T05:27:44.579Z,9.60
2018-05-19T05:28:44.728Z,9.57
2018-05-19T05:29:44.893Z,9.50
2018-05-19T05:30:45.035Z,9.64
2018-05-19T05:31:45.190Z,9.57
2018-05-19T05:32:45.338Z,9.46
2018-05-19T05:33:45.488Z,9.52
2018-05-19T05:34:45.639Z,9.42
2018-05-19T05:35:45.795Z,9.43
2018-05-19T05:36:45.951Z,9.53
2018-05-19T05:37:46.116Z,9.50
2018-05-19T05:38:46.269Z,9.52
2018-05-19T05:39:46.417Z,9.63
2018-05-19T05:40:46.571Z,9.63
2018-05-19T05:41:46.726Z,9.71
2018-05-19T05:42:46.872Z,9.67
2018-05-19T05:43:47.020Z,9.66
2018-05-19T05:44:47.171Z,9.68
2018-05-19T05:45:47.323Z,9.86
2018-05-19T05:46:47.473Z,9.83
2018-05-19T05:47:47.624Z,9.94
2018-05-19T05:48:47.778Z,10.03
2018-05-19T05:49:47.929Z,9.91
2018-05-19T05:50:48.079Z,9.93
2018-05-19T05:51:48.233Z,10.12
2018-05-19T05:52:48.383Z,9.89
2018-05-19T05:53:48.543Z,10.09
2018-05-19T05:54:48.695Z,10.06
2018-05-19T05:55:48.855Z,10.06
2018-05-19T05:56:49.006Z,10.24
2018-05-19T05:57:49.158Z,10.47
2018-05-19T05:58:49.313Z,10.52
2018-05-19T05:59:49.543Z,10.60
2018-05-19T06:00:49.674Z,10.66
2018-05-19T06:01:49.767Z,10.68
2018-05-19T06:02:49.916Z,10.76
2018-05-19T06:03:50.116Z,10.71
2018-05-19T06:04:50.215Z,10.76
2018-05-19T06:05:50.366Z,10.91
2018-05-19T06:06:50.527Z,10.84
2018-05-19T06:07:53.608Z,10.71
2018-05-19T06:08:50.755Z,10.80
2018-05-19T06:09:50.903Z,10.77
2018-05-19T06:10:51.062Z,10.94
2018-05-19T06:11:51.212Z,10.94
2018-05-19T06:12:51.358Z,11.03
2018-05-19T06:13:51.509Z,11.11
2018-05-19T06:14:51.659Z,11.24
2018-05-19T06:15:51.822Z,11.36
2018-05-19T06:16:51.988Z,11.36
2018-05-19T06:17:52.106Z,11.46
2018-05-19T06:18:52.263Z,11.52
2018-05-19T06:19:52.410Z,11.56
2018-05-19T06:20:52.564Z,11.36
2018-05-19T06:21:52.715Z,11.47
2018-05-19T06:22:52.865Z,11.41
2018-05-19T06:23:53.018Z,11.43
2018-05-19T06:24:53.250Z,11.29
2018-05-19T06:25:53.327Z,11.39
2018-05-19T06:26:53.494Z,11.47
2018-05-19T06:27:53.632Z,11.44
2018-05-19T06:28:53.785Z,11.43
2018-05-19T06:29:53.936Z,11.47
2018-05-19T06:30:54.089Z,11.54
2018-05-19T06:31:54.242Z,11.68
2018-05-19T06:32:54.394Z,11.75
2018-05-19T06:33:54.556Z,11.78
2018-05-19T06:34:54.792Z,11.86
2018-05-19T06:35:54.859Z,11.62
2018-05-19T06:36:55.020Z,11.61
2018-05-19T06:37:55.170Z,11.86
2018-05-19T06:38:55.325Z,11.68
2018-05-19T06:39:55.486Z,11.85
2018-05-19T06:40:55.632Z,12.02
2018-05-19T06:41:55.890Z,12.29
2018-05-19T06:42:55.945Z,12.33
2018-05-19T06:43:56.089Z,12.29
2018-05-19T06:44:56.241Z,12.11
2018-05-19T06:45:56.384Z,12.15
2018-05-19T06:46:56.538Z,12.09
2018-05-19T06:47:56.742Z,11.99
2018-05-19T06:48:56.853Z,12.15
2018-05-19T06:49:57.003Z,12.33
2018-05-19T06:50:57.158Z,12.33
2018-05-19T06:51:57.310Z,12.34
2018-05-19T06:52:57.461Z,12.44
2018-05-19T06:53:57.614Z,12.45
2018-05-19T06:54:57.875Z,12.54
2018-05-19T06:55:57.935Z,12.49
2018-05-19T06:56:58.065Z,12.66
2018-05-19T06:57:58.220Z,12.62
2018-05-19T06:58:58.413Z,12.67
2018-05-19T06:59:58.524Z,12.51
2018-05-19T07:00:58.678Z,12.59
2018-05-19T07:01:58.819Z,12.69
2018-05-19T07:02:59.212Z,12.71
2018-05-19T07:03:59.148Z,12.79
2018-05-19T07:04:59.304Z,12.82
2018-05-19T07:05:59.455Z,12.95
2018-05-19T07:06:59.606Z,13.07
2018-05-19T07:07:59.744Z,13.22
2018-05-19T07:08:59.912Z,13.36
2018-05-19T07:10:00.064Z,13.37
2018-05-19T07:11:00.292Z,13.44
2018-05-19T07:12:00.397Z,13.58
2018-05-19T07:13:00.528Z,13.43
2018-05-19T07:14:00.684Z,13.65
2018-05-19T07:15:00.926Z,13.54
2018-05-19T07:16:00.988Z,13.49
2018-05-19T07:17:01.144Z,13.62
2018-05-19T07:18:01.296Z,13.67
2018-05-19T07:19:01.454Z,13.83
2018-05-19T07:20:01.605Z,13.77
2018-05-19T07:21:01.756Z,13.70
2018-05-19T07:22:01.910Z,13.59
2018-05-19T07:23:02.063Z,13.41
2018-05-19T07:24:02.221Z,13.51
2018-05-19T07:25:02.371Z,13.62
2018-05-19T07:26:02.527Z,13.55
2018-05-19T07:27:02.683Z,13.89
2018-05-19T07:28:02.837Z,14.04
2018-05-19T07:29:03.024Z,14.19
2018-05-19T07:30:03.167Z,14.25
2018-05-19T07:31:03.328Z,14.32
2018-05-19T07:32:03.470Z,14.47
2018-05-19T07:33:03.622Z,14.53
2018-05-19T07:34:03.773Z,14.42
2018-05-19T07:35:03.932Z,14.56
2018-05-19T07:36:04.157Z,14.32
2018-05-19T07:37:04.239Z,14.31
2018-05-19T07:38:04.394Z,14.35
2018-05-19T07:39:04.552Z,14.34
2018-05-19T07:40:04.705Z,14.69
2018-05-19T07:41:04.868Z,14.68
2018-05-19T07:42:05.016Z,14.61
2018-05-19T07:43:05.174Z,14.54
2018-05-19T07:44:05.325Z,14.32
2018-05-19T07:45:05.478Z,14.21
2018-05-19T07:46:05.635Z,14.47
2018-05-19T07:47:05.791Z,14.60
2018-05-19T07:48:05.947Z,14.90
2018-05-19T07:49:06.101Z,14.87
2018-05-19T07:50:06.252Z,14.90
2018-05-19T07:51:06.410Z,14.91
2018-05-19T07:52:06.568Z,15.02
2018-05-19T07:53:06.721Z,15.08
2018-05-19T07:54:06.873Z,15.05
2018-05-19T07:55:07.030Z,14.90
2018-05-19T07:56:07.183Z,14.87
2018-05-19T07:57:07.338Z,14.67
2018-05-19T07:58:07.495Z,14.87
2018-05-19T07:59:07.651Z,14.78
2018-05-19T08:00:07.804Z,14.88
2018-05-19T08:01:07.961Z,14.83
2018-05-19T08:02:08.118Z,14.86
2018-05-19T08:03:08.272Z,14.93
2018-05-19T08:04:08.436Z,14.83
2018-05-19T08:05:08.583Z,14.86
2018-05-19T08:06:08.740Z,14.88
2018-05-19T08:07:08.892Z,14.80
2018-05-19T08:08:09.051Z,14.88
2018-05-19T08:09:09.207Z,14.88
2018-05-19T08:10:09.365Z,14.84
2018-05-19T08:11:09.518Z,14.83
2018-05-19T08:12:09.679Z,14.86
2018-05-19T08:13:09.855Z,15.03
2018-05-19T08:14:09.984Z,14.98
2018-05-19T08:15:10.137Z,14.94
2018-05-19T08:16:10.295Z,15.11
2018-05-19T08:17:10.449Z,15.09
2018-05-19T08:18:10.606Z,15.06
2018-05-19T08:19:10.761Z,15.05
2018-05-19T08:20:11.001Z,14.98
2018-05-19T08:21:11.074Z,14.94
2018-05-19T08:22:11.227Z,15.03
2018-05-19T08:23:11.395Z,15.27
2018-05-19T08:24:11.548Z,15.54
2018-05-19T08:25:11.701Z,15.70
2018-05-19T08:26:11.856Z,15.51
2018-05-19T08:27:12.013Z,15.56
2018-05-19T08:28:12.167Z,15.78
2018-05-19T08:29:12.322Z,15.70
2018-05-19T08:30:12.478Z,15.59
2018-05-19T08:31:12.635Z,15.81
2018-05-19T08:32:12.790Z,15.72
2018-05-19T08:33:12.945Z,15.63
2018-05-19T08:34:13.101Z,15.51
2018-05-19T08:35:13.267Z,15.54
2018-05-19T08:36:13.415Z,15.46
2018-05-19T08:37:13.588Z,15.67
2018-05-19T08:38:13.721Z,15.74
2018-05-19T08:39:13.957Z,15.92
2018-05-19T08:40:14.058Z,15.85
2018-05-19T08:41:14.219Z,15.93
2018-05-19T08:42:14.371Z,15.82
2018-05-19T08:43:14.529Z,15.49
2018-05-19T08:44:14.685Z,15.49
2018-05-19T08:45:14.839Z,15.45
2018-05-19T08:46:14.997Z,15.56
2018-05-19T08:47:15.153Z,15.41
2018-05-19T08:48:15.310Z,15.39
2018-05-19T08:49:15.465Z,15.61
2018-05-19T08:50:15.620Z,15.51
2018-05-19T08:51:15.777Z,15.70
2018-05-19T08:52:15.924Z,15.75
2018-05-19T08:53:16.076Z,16.01
2018-05-19T08:54:16.233Z,15.92
2018-05-19T08:55:16.397Z,15.56
2018-05-19T08:56:16.548Z,15.66
2018-05-19T08:57:16.703Z,15.57
2018-05-19T08:58:16.880Z,15.46
2018-05-19T08:59:17.018Z,15.26
2018-05-19T09:00:17.175Z,15.28
2018-05-19T09:01:17.329Z,15.17
2018-05-19T09:02:17.492Z,15.05
2018-05-19T09:03:17.646Z,15.23
2018-05-19T09:04:17.801Z,15.26
2018-05-19T09:05:17.958Z,15.24
2018-05-19T09:06:18.112Z,15.36
2018-05-19T09:07:18.268Z,15.36
2018-05-19T09:08:18.426Z,15.46
2018-05-19T09:09:18.581Z,15.36
2018-05-19T09:10:18.739Z,15.52
2018-05-19T09:11:18.892Z,15.66
2018-05-19T09:12:19.048Z,15.66
2018-05-19T09:13:19.202Z,15.64
2018-05-19T09:14:19.362Z,15.82
2018-05-19T09:15:19.516Z,15.84
2018-05-19T09:16:19.673Z,15.70
2018-05-19T09:17:19.830Z,15.57
2018-05-19T09:18:19.984Z,15.49
2018-05-19T09:19:20.142Z,15.59
2018-05-19T09:20:20.296Z,15.84
2018-05-19T09:21:20.455Z,16.12
2018-05-19T09:22:20.613Z,16.41
2018-05-19T09:23:20.769Z,16.62
2018-05-19T09:24:20.945Z,16.60
2018-05-19T09:25:21.076Z,16.50
2018-05-19T09:26:21.235Z,16.48
2018-05-19T09:27:21.391Z,16.65
2018-05-19T09:28:21.552Z,16.71
2018-05-19T09:29:21.711Z,16.99
2018-05-19T09:30:21.867Z,16.81
2018-05-19T09:31:22.027Z,16.86
2018-05-19T09:32:22.180Z,16.81
2018-05-19T09:33:22.335Z,16.86
2018-05-19T09:34:22.495Z,17.06
2018-05-19T09:35:22.652Z,16.71
2018-05-19T09:36:22.806Z,16.16
2018-05-19T09:37:22.966Z,16.15
2018-05-19T09:38:23.124Z,16.25
2018-05-19T09:39:23.279Z,16.09
2018-05-19T09:40:23.477Z,16.26
2018-05-19T09:41:23.593Z,16.07
2018-05-19T09:42:23.750Z,16.23
2018-05-19T09:43:23.908Z,15.86
2018-05-19T09:44:24.068Z,15.84
2018-05-19T09:45:24.223Z,15.99
2018-05-19T09:46:24.382Z,16.15
2018-05-19T09:47:24.545Z,16.25
2018-05-19T09:48:24.695Z,16.33
2018-05-19T09:49:24.851Z,16.80
2018-05-19T09:50:25.006Z,16.93
2018-05-19T09:51:25.163Z,17.13
2018-05-19T09:52:25.322Z,16.73
2018-05-19T09:53:25.479Z,17.32
2018-05-19T09:54:25.638Z,17.08
2018-05-19T09:55:25.793Z,16.88
2018-05-19T09:56:25.949Z,17.18
2018-05-19T09:57:26.106Z,17.15
2018-05-19T09:58:26.265Z,17.08
2018-05-19T09:59:26.505Z,17.14
2018-05-19T10:00:26.583Z,16.99
2018-05-19T10:01:26.741Z,16.59
2018-05-19T10:02:26.895Z,16.53
2018-05-19T10:03:27.054Z,16.63
2018-05-19T10:04:27.212Z,16.86
2018-05-19T10:05:27.367Z,16.80
2018-05-19T10:06:27.518Z,16.60
2018-05-19T10:07:27.679Z,16.77
2018-05-19T10:08:27.835Z,16.71
2018-05-19T10:09:27.992Z,16.75
2018-05-19T10:10:28.151Z,16.93
2018-05-19T10:11:28.310Z,17.08
2018-05-19T10:12:28.470Z,16.80
2018-05-19T10:13:28.625Z,16.68
2018-05-19T10:14:28.785Z,16.85
2018-05-19T10:15:28.942Z,17.17
2018-05-19T10:16:29.100Z,17.57
2018-05-19T10:17:29.258Z,17.79
2018-05-19T10:18:29.414Z,17.78
2018-05-19T10:19:29.573Z,18.03
2018-05-19T10:20:29.731Z,18.17
2018-05-19T10:21:29.888Z,18.47
2018-05-19T10:22:30.045Z,18.47
2018-05-19T10:23:30.201Z,18.44
2018-05-19T10:24:30.361Z,18.49
2018-05-19T10:25:30.523Z,18.73
2018-05-19T10:26:30.681Z,18.87
2018-05-19T10:27:30.839Z,18.64
2018-05-19T10:28:31.000Z,18.36
2018-05-19T10:29:31.155Z,17.97
2018-05-19T10:30:31.313Z,17.70
2018-05-19T10:31:31.476Z,17.70
2018-05-19T10:32:31.638Z,17.74
2018-05-19T10:33:31.799Z,17.88
2018-05-19T10:34:31.961Z,17.92
2018-05-19T10:35:32.157Z,18.12
2018-05-19T10:36:32.279Z,17.85
2018-05-19T10:37:32.444Z,17.84
2018-05-19T10:38:32.603Z,17.66
2018-05-19T10:39:32.758Z,17.76
2018-05-19T10:40:32.919Z,17.53
2018-05-19T10:41:33.078Z,17.38
2018-05-19T10:42:33.235Z,17.62
2018-05-19T10:43:33.394Z,17.33
2018-05-19T10:44:33.556Z,17.14
2018-05-19T10:45:33.723Z,16.98
2018-05-19T10:46:33.880Z,16.83
2018-05-19T10:47:34.036Z,16.81
2018-05-19T10:48:34.192Z,16.83
2018-05-19T10:49:34.351Z,16.80
2018-05-19T10:50:34.507Z,16.99
2018-05-19T10:51:34.663Z,17.28
2018-05-19T10:52:34.820Z,17.35
2018-05-19T10:53:34.984Z,17.54
2018-05-19T10:54:35.140Z,17.53
2018-05-19T10:55:35.298Z,17.62
2018-05-19T10:56:35.455Z,17.89
2018-05-19T10:57:35.614Z,18.13
2018-05-19T10:58:35.771Z,18.09
2018-05-19T10:59:35.929Z,18.02
2018-05-19T11:00:36.090Z,17.63
2018-05-19T11:01:36.246Z,17.26
2018-05-19T11:02:36.403Z,17.06
2018-05-19T11:03:36.560Z,16.92
2018-05-19T11:04:36.721Z,17.04
2018-05-19T11:05:36.879Z,17.18
2018-05-19T11:06:37.038Z,17.33
2018-05-19T11:07:37.199Z,17.43
2018-05-19T11:08:37.356Z,17.82
2018-05-19T11:09:37.512Z,17.91
2018-05-19T11:10:37.669Z,18.10
2018-05-19T11:11:37.826Z,18.09
2018-05-19T11:12:37.983Z,18.07
2018-05-19T11:13:38.139Z,17.91
2018-05-19T11:14:38.298Z,17.89
2018-05-19T11:15:38.456Z,17.89
2018-05-19T11:16:38.615Z,18.17
2018-05-19T11:17:38.771Z,18.37
2018-05-19T11:18:38.943Z,18.10
2018-05-19T11:19:39.089Z,18.12
2018-05-19T11:20:39.248Z,18.07
2018-05-19T11:21:39.405Z,17.79
2018-05-19T11:22:39.562Z,17.32
2018-05-19T11:23:39.721Z,17.13
2018-05-19T11:24:39.883Z,17.08
2018-05-19T11:25:40.072Z,16.98
2018-05-19T11:26:40.199Z,17.15
2018-05-19T11:27:40.354Z,17.43
2018-05-19T11:28:40.509Z,17.55
2018-05-19T11:29:40.667Z,17.67
2018-05-19T11:30:40.823Z,17.87
2018-05-19T11:31:40.981Z,18.12
2018-05-19T11:32:41.139Z,18.09
2018-05-19T11:33:41.298Z,18.36
2018-05-19T11:34:41.456Z,18.33
2018-05-19T11:35:41.612Z,18.55
2018-05-19T11:36:41.770Z,18.80
2018-05-19T11:37:41.930Z,18.79
2018-05-19T11:38:42.085Z,18.59
2018-05-19T11:39:42.243Z,18.04
2018-05-19T11:40:42.403Z,17.91
2018-05-19T11:41:42.560Z,17.67
2018-05-19T11:42:42.718Z,17.67
2018-05-19T11:43:42.874Z,17.62
2018-05-19T11:44:43.034Z,17.97
2018-05-19T11:45:43.190Z,17.91
2018-05-19T11:46:43.350Z,18.28
2018-05-19T11:47:43.505Z,18.50
2018-05-19T11:48:43.664Z,18.61
2018-05-19T11:49:43.825Z,18.49
2018-05-19T11:50:44.075Z,18.39
2018-05-19T11:51:44.139Z,18.54
2018-05-19T11:52:44.294Z,18.84
2018-05-19T11:53:44.453Z,18.65
2018-05-19T11:54:44.612Z,18.67
2018-05-19T11:55:44.771Z,18.73
2018-05-19T11:56:44.926Z,18.37
2018-05-19T11:57:45.087Z,18.17
2018-05-19T11:58:45.245Z,17.92
2018-05-19T11:59:45.403Z,17.89
2018-05-19T12:00:45.563Z,17.57
2018-05-19T12:01:45.723Z,17.63
2018-05-19T12:02:45.958Z,17.59
2018-05-19T12:03:46.034Z,17.79
2018-05-19T12:04:46.190Z,18.02
2018-05-19T12:05:46.392Z,18.12
2018-05-19T12:06:46.508Z,18.37
2018-05-19T12:07:46.669Z,18.22
2018-05-19T12:08:46.829Z,18.27
2018-05-19T12:09:46.983Z,18.46
2018-05-19T12:10:47.144Z,18.76
2018-05-19T12:11:47.308Z,18.86
2018-05-19T12:12:47.471Z,19.10
2018-05-19T12:13:47.631Z,19.21
2018-05-19T12:14:47.785Z,19.23
2018-05-19T12:15:47.944Z,18.95
2018-05-19T12:16:48.102Z,18.79
2018-05-19T12:17:48.261Z,18.98
2018-05-19T12:18:48.417Z,18.87
2018-05-19T12:19:48.576Z,18.95
2018-05-19T12:20:48.739Z,18.94
2018-05-19T12:21:48.892Z,18.62
2018-05-19T12:22:49.139Z,18.27
2018-05-19T12:23:49.213Z,18.12
2018-05-19T12:24:49.376Z,18.10
2018-05-19T12:25:49.521Z,17.91
2018-05-19T12:26:49.680Z,17.89
2018-05-19T12:27:49.839Z,18.06
2018-05-19T12:28:49.996Z,18.09
2018-05-19T12:29:50.155Z,18.24
2018-05-19T12:30:50.314Z,18.42
2018-05-19T12:31:50.471Z,18.61
2018-05-19T12:32:50.628Z,18.59
2018-05-19T12:33:50.788Z,18.91
2018-05-19T12:34:50.945Z,18.76
2018-05-19T12:35:51.130Z,18.79
2018-05-19T12:36:51.289Z,18.61
2018-05-19T12:37:51.447Z,18.62
2018-05-19T12:38:51.607Z,18.43
2018-05-19T12:39:51.764Z,18.57
2018-05-19T12:40:51.920Z,18.59
2018-05-19T12:41:52.081Z,18.86
2018-05-19T12:42:52.242Z,19.15
2018-05-19T12:43:52.402Z,19.31
2018-05-19T12:44:52.560Z,19.68
2018-05-19T12:45:52.718Z,19.72
2018-05-19T12:46:52.876Z,19.86
2018-05-19T12:47:53.037Z,20.09
2018-05-19T12:48:53.228Z,20.35
2018-05-19T12:49:53.358Z,20.77
2018-05-19T12:50:53.518Z,20.93
2018-05-19T12:51:53.677Z,20.98
2018-05-19T12:52:53.836Z,20.50
2018-05-19T12:53:53.994Z,19.98
2018-05-19T12:54:54.154Z,20.00
2018-05-19T12:55:54.314Z,19.66
2018-05-19T12:56:54.472Z,19.15
2018-05-19T12:57:54.632Z,18.97
2018-05-19T12:58:54.790Z,18.77
2018-05-19T12:59:54.947Z,18.97
2018-05-19T13:00:55.106Z,18.82
2018-05-19T13:01:55.275Z,18.87
2018-05-19T13:02:55.429Z,19.08
2018-05-19T13:03:55.588Z,19.25
2018-05-19T13:04:55.750Z,19.10
2018-05-19T13:05:55.909Z,19.14